createdAt,value
2022-11-29T00:01:36.952Z,44.60
2022-11-29T00:04:05.133Z,44.30
2022-11-29T00:06:35.050Z,44.00
2022-11-29T00:09:07.053Z,43.70
2022-11-29T00:11:50.313Z,43.30
2022-11-29T00:14:18.722Z,43.00
2022-11-29T00:16:50.213Z,42.30
2022-11-29T00:19:18.665Z,41.80
2022-11-29T00:21:46.268Z,41.60
2022-11-29T00:24:14.192Z,41.60
2022-11-29T00:26:41.593Z,41.70
2022-11-29T00:29:12.425Z,41.70
2022-11-29T00:31:40.234Z,41.70
2022-11-29T00:34:08.325Z,41.50
2022-11-29T00:36:36.139Z,41.40
2022-11-29T00:39:05.141Z,41.40
2022-11-29T00:41:32.925Z,41.40
2022-11-29T00:44:00.611Z,41.40
2022-11-29T00:46:28.818Z,41.50
2022-11-29T00:48:56.605Z,41.50
2022-11-29T00:51:23.899Z,41.50
2022-11-29T00:53:51.811Z,41.50
2022-11-29T00:56:19.078Z,41.40
2022-11-29T00:58:48.538Z,41.50
2022-11-29T01:01:16.540Z,41.40
2022-11-29T01:03:44.441Z,41.40
2022-11-29T01:06:13.792Z,41.40
2022-11-29T01:08:41.789Z,41.30
2022-11-29T01:11:19.359Z,41.20
2022-11-29T01:13:47.351Z,41.20
2022-11-29T01:16:16.362Z,41.10
2022-11-29T01:18:44.521Z,41.00
2022-11-29T01:21:15.004Z,40.90
2022-11-29T01:23:43.570Z,40.90
2022-11-29T01:26:14.833Z,40.70
2022-11-29T01:28:42.872Z,40.70
2022-11-29T01:31:17.191Z,40.60
2022-11-29T01:33:45.361Z,40.50
2022-11-29T01:36:14.751Z,40.40
2022-11-29T01:38:42.730Z,40.30
2022-11-29T01:41:14.920Z,40.30
2022-11-29T01:43:56.424Z,40.30
2022-11-29T01:46:24.570Z,40.40
2022-11-29T01:48:57.905Z,40.60
2022-11-29T01:51:27.094Z,40.70
2022-11-29T01:53:55.712Z,40.80
2022-11-29T01:56:24.368Z,40.50
2022-11-29T01:58:52.523Z,40.40
2022-11-29T02:01:20.480Z,40.20
2022-11-29T02:03:48.011Z,40.10
2022-11-29T02:06:16.516Z,40.10
2022-11-29T02:08:44.799Z,40.20
2022-11-29T02:11:44.233Z,40.30
2022-11-29T02:14:21.049Z,40.30
2022-11-29T02:16:56.717Z,40.60
2022-11-29T02:19:50.393Z,40.40
2022-11-29T02:22:29.600Z,40.70
2022-11-29T02:25:26.556Z,40.40
2022-11-29T02:28:21.958Z,40.30
2022-11-29T02:31:18.525Z,40.00
2022-11-29T02:34:12.809Z,40.00
2022-11-29T02:37:11.287Z,39.80
2022-11-29T02:39:39.163Z,39.80
2022-11-29T02:42:26.897Z,39.80
2022-11-29T02:44:57.693Z,39.80
2022-11-29T02:47:34.703Z,39.80
2022-11-29T02:50:20.673Z,39.90
2022-11-29T02:53:16.265Z,39.80
2022-11-29T02:56:04.721Z,39.70
2022-11-29T02:58:37.626Z,39.60
2022-11-29T03:01:16.107Z,39.60
2022-11-29T03:04:02.025Z,39.50
2022-11-29T03:06:50.411Z,39.60
2022-11-29T03:09:45.868Z,39.50
2022-11-29T03:12:29.200Z,39.40
2022-11-29T03:14:56.846Z,39.40
2022-11-29T03:17:31.350Z,39.60
2022-11-29T03:20:30.745Z,39.70
2022-11-29T03:23:16.795Z,40.10
2022-11-29T03:25:53.697Z,40.90
2022-11-29T03:28:39.704Z,42.30
2022-11-29T03:31:18.428Z,42.20
2022-11-29T03:33:55.455Z,41.00
2022-11-29T03:36:25.933Z,40.20
2022-11-29T03:38:59.069Z,39.70
2022-11-29T03:41:45.567Z,39.50
2022-11-29T03:44:17.811Z,39.50
2022-11-29T03:46:57.191Z,39.40
2022-11-29T03:49:39.189Z,39.30
2022-11-29T03:52:24.301Z,39.20
2022-11-29T03:55:11.568Z,39.10
2022-11-29T03:58:07.164Z,39.10
2022-11-29T04:00:45.911Z,39.00
2022-11-29T04:03:30.139Z,39.00
2022-11-29T04:06:14.796Z,39.00
2022-11-29T04:08:51.344Z,39.00
2022-11-29T04:11:25.672Z,39.00
2022-11-29T04:14:10.183Z,38.80
2022-11-29T04:17:00.543Z,38.80
2022-11-29T04:20:04.493Z,38.90
2022-11-29T04:23:01.992Z,38.80
2022-11-29T04:25:38.430Z,39.00
2022-11-29T04:28:20.079Z,39.00
2022-11-29T04:31:04.135Z,38.90
2022-11-29T04:33:55.461Z,39.00
2022-11-29T04:36:43.605Z,38.90
2022-11-29T04:39:45.385Z,39.00
2022-11-29T04:42:36.285Z,39.00
2022-11-29T04:45:03.686Z,38.90
2022-11-29T04:47:56.734Z,38.80
2022-11-29T04:50:44.240Z,38.70
2022-11-29T04:53:23.689Z,38.70
2022-11-29T04:56:13.789Z,38.70
2022-11-29T04:59:03.788Z,38.60
2022-11-29T05:01:37.302Z,38.70
2022-11-29T05:04:25.799Z,38.50
2022-11-29T05:06:56.150Z,38.40
2022-11-29T05:09:30.035Z,38.40
2022-11-29T05:12:26.617Z,38.30
2022-11-29T05:15:22.326Z,38.30
2022-11-29T05:18:19.761Z,38.40
2022-11-29T05:20:53.044Z,38.40
2022-11-29T05:23:29.204Z,38.40
2022-11-29T05:26:17.921Z,38.30
2022-11-29T05:29:09.008Z,38.20
2022-11-29T05:32:05.224Z,38.20
2022-11-29T05:34:47.897Z,39.50
2022-11-29T05:37:38.726Z,51.30
2022-11-29T05:40:26.005Z,58.40
2022-11-29T05:43:15.394Z,63.20
2022-11-29T05:46:10.729Z,66.70
2022-11-29T05:48:48.945Z,69.20
2022-11-29T05:51:36.324Z,71.10
2022-11-29T05:54:15.358Z,72.70
2022-11-29T05:57:10.724Z,73.70
2022-11-29T05:59:40.399Z,74.50
2022-11-29T06:02:21.435Z,75.10
2022-11-29T06:04:52.210Z,76.20
2022-11-29T06:07:41.413Z,77.60
2022-11-29T06:10:24.717Z,78.50
2022-11-29T06:13:18.919Z,79.40
2022-11-29T06:15:56.991Z,80.00
2022-11-29T06:18:38.617Z,80.40
2022-11-29T06:21:26.019Z,80.80
2022-11-29T06:24:18.575Z,81.00
2022-11-29T06:27:22.327Z,81.10
2022-11-29T06:29:58.186Z,80.90
2022-11-29T06:32:44.819Z,80.90
2022-11-29T06:35:40.273Z,80.90
2022-11-29T06:38:23.222Z,81.00
2022-11-29T06:44:25.123Z,81.50
2022-11-29T06:47:13.755Z,81.60
2022-11-29T06:49:51.189Z,81.50
2022-11-29T06:52:50.931Z,81.20
2022-11-29T06:55:27.570Z,81.40
2022-11-29T06:58:13.848Z,80.30
2022-11-29T07:01:11.454Z,79.70
2022-11-29T07:03:54.738Z,79.20
2022-11-29T07:06:27.625Z,78.90
2022-11-29T07:09:18.710Z,78.50
2022-11-29T07:11:48.034Z,78.60
2022-11-29T07:14:15.809Z,78.70
2022-11-29T07:17:03.404Z,78.70
2022-11-29T07:19:33.753Z,78.80
2022-11-29T07:22:04.520Z,79.00
2022-11-29T07:24:46.275Z,79.20
2022-11-29T07:27:20.317Z,79.20
2022-11-29T07:29:53.459Z,79.40
2022-11-29T07:32:34.343Z,79.50
2022-11-29T07:35:10.654Z,79.70
2022-11-29T07:38:04.699Z,79.70
2022-11-29T07:40:48.146Z,79.60
2022-11-29T07:43:21.526Z,79.30
2022-11-29T07:45:50.432Z,79.10
2022-11-29T07:48:18.460Z,79.60
2022-11-29T07:50:46.378Z,79.30
2022-11-29T07:53:22.452Z,79.50
2022-11-29T07:55:50.670Z,79.70
2022-11-29T07:58:21.274Z,79.80
2022-11-29T08:00:48.925Z,80.40
2022-11-29T08:03:16.810Z,80.00
2022-11-29T08:05:47.418Z,80.00
2022-11-29T08:08:15.975Z,80.20
2022-11-29T08:10:43.669Z,80.30
2022-11-29T08:13:11.294Z,80.30
2022-11-29T08:15:45.536Z,80.50
2022-11-29T08:18:13.821Z,80.60
2022-11-29T08:20:42.403Z,80.10
2022-11-29T08:23:12.964Z,80.00
2022-11-29T08:25:40.808Z,79.90
2022-11-29T08:28:09.564Z,80.70
2022-11-29T08:30:37.002Z,79.40
2022-11-29T08:33:05.198Z,78.90
2022-11-29T08:35:34.613Z,78.90
2022-11-29T08:38:04.156Z,78.60
2022-11-29T08:40:31.780Z,78.80
2022-11-29T08:42:59.530Z,78.80
2022-11-29T08:45:27.013Z,78.70
2022-11-29T08:47:54.682Z,79.20
2022-11-29T08:50:22.774Z,78.50
2022-11-29T08:53:04.925Z,78.70
2022-11-29T08:55:35.803Z,78.80
2022-11-29T08:58:10.410Z,79.30
2022-11-29T09:00:39.569Z,79.80
2022-11-29T09:03:22.084Z,79.70
2022-11-29T09:05:49.976Z,80.30
2022-11-29T09:08:18.515Z,80.00
2022-11-29T09:10:46.521Z,81.00
2022-11-29T09:13:14.389Z,80.90
2022-11-29T09:15:43.843Z,80.10
2022-11-29T09:18:11.937Z,81.00
2022-11-29T09:20:43.801Z,81.40
2022-11-29T09:23:13.094Z,81.10
2022-11-29T09:25:40.685Z,80.50
2022-11-29T09:28:08.913Z,80.80
2022-11-29T09:30:38.236Z,80.70
2022-11-29T09:33:06.386Z,81.10
2022-11-29T09:35:35.135Z,81.60
2022-11-29T09:38:03.246Z,81.60
2022-11-29T09:40:57.867Z,80.90
2022-11-29T09:43:47.337Z,81.70
2022-11-29T09:46:48.486Z,81.50
2022-11-29T09:49:36.576Z,81.50
2022-11-29T09:52:12.730Z,80.60
2022-11-29T09:55:00.766Z,80.80
2022-11-29T09:57:30.880Z,80.50
2022-11-29T10:00:05.096Z,81.20
2022-11-29T10:02:48.011Z,80.70
2022-11-29T10:05:23.061Z,80.70
2022-11-29T10:07:57.062Z,81.20
2022-11-29T10:10:33.840Z,81.00
2022-11-29T10:13:16.177Z,81.40
2022-11-29T10:15:51.625Z,80.90
2022-11-29T10:18:35.081Z,80.90
2022-11-29T10:21:13.559Z,80.90
2022-11-29T10:23:49.359Z,79.80
2022-11-29T10:26:18.173Z,79.70
2022-11-29T10:28:48.327Z,78.90
2022-11-29T10:31:35.645Z,79.30
2022-11-29T10:34:12.531Z,79.40
2022-11-29T10:36:55.449Z,79.30
2022-11-29T10:39:46.321Z,79.30
2022-11-29T10:42:37.200Z,79.40
2022-11-29T10:45:13.621Z,79.40
2022-11-29T10:47:41.586Z,78.80
2022-11-29T10:50:19.253Z,78.90
2022-11-29T10:52:47.041Z,79.80
2022-11-29T10:55:17.931Z,79.30
2022-11-29T10:58:13.449Z,78.50
2022-11-29T11:00:55.992Z,78.70
2022-11-29T11:03:35.972Z,79.50
2022-11-29T11:06:09.058Z,79.00
2022-11-29T11:08:38.947Z,80.40
2022-11-29T11:11:08.165Z,79.80
2022-11-29T11:13:37.519Z,79.40
2022-11-29T11:16:20.743Z,79.20
2022-11-29T11:18:49.080Z,78.50
2022-11-29T11:21:23.772Z,79.50
2022-11-29T11:23:56.479Z,78.70
2022-11-29T11:26:26.158Z,78.30
2022-11-29T11:29:00.346Z,78.90
2022-11-29T11:31:40.965Z,78.20
2022-11-29T11:34:28.191Z,77.50
2022-11-29T11:37:22.102Z,76.90
2022-11-29T11:39:52.810Z,76.80
2022-11-29T11:42:37.445Z,77.20
2022-11-29T11:45:11.426Z,77.00
2022-11-29T11:47:49.890Z,75.20
2022-11-29T11:50:31.824Z,74.50
2022-11-29T11:53:07.386Z,74.60
2022-11-29T11:55:40.064Z,74.70
2022-11-29T11:58:17.899Z,74.90
2022-11-29T12:01:05.201Z,74.50
2022-11-29T12:03:50.767Z,73.60
2022-11-29T12:06:36.590Z,74.00
2022-11-29T12:09:19.026Z,74.30
2022-11-29T12:12:04.123Z,74.30
2022-11-29T12:14:35.960Z,74.90
2022-11-29T12:17:26.709Z,75.50
2022-11-29T12:20:22.103Z,75.70
2022-11-29T12:23:13.184Z,76.50
2022-11-29T12:25:49.672Z,76.90
2022-11-29T12:28:20.868Z,76.80
2022-11-29T12:30:51.697Z,76.70
2022-11-29T12:33:38.035Z,76.70
2022-11-29T12:36:25.550Z,76.70
2022-11-29T12:39:07.198Z,77.20
2022-11-29T12:41:59.320Z,76.00
2022-11-29T12:44:48.563Z,75.00
2022-11-29T12:47:38.345Z,74.90
2022-11-29T12:50:23.093Z,74.30
2022-11-29T12:53:03.030Z,75.60
2022-11-29T12:55:42.902Z,77.30
2022-11-29T12:58:45.610Z,75.60
2022-11-29T13:01:22.764Z,76.70
2022-11-29T13:04:04.917Z,77.60
2022-11-29T13:06:44.496Z,76.50
2022-11-29T13:09:39.867Z,76.10
2022-11-29T13:12:24.391Z,76.80
2022-11-29T13:15:06.522Z,74.20
2022-11-29T13:18:12.673Z,75.10
2022-11-29T13:20:55.470Z,75.50
2022-11-29T13:24:07.189Z,76.10
2022-11-29T13:26:29.329Z,74.50
2022-11-29T13:28:58.007Z,74.90
2022-11-29T13:31:26.488Z,73.90
2022-11-29T13:34:11.548Z,74.20
2022-11-29T13:37:07.078Z,74.30
2022-11-29T13:40:03.804Z,73.20
2022-11-29T13:42:51.350Z,73.50
2022-11-29T13:45:28.531Z,73.20
2022-11-29T13:48:02.148Z,73.10
2022-11-29T13:50:40.655Z,72.30
2022-11-29T13:53:23.706Z,74.00
2022-11-29T13:56:03.311Z,73.30
2022-11-29T13:58:41.039Z,73.40
2022-11-29T14:01:12.169Z,73.50
2022-11-29T14:03:42.147Z,73.80
2022-11-29T14:06:34.457Z,73.10
2022-11-29T14:09:26.302Z,73.10
2022-11-29T14:12:01.920Z,73.70
2022-11-29T14:15:01.838Z,74.30
2022-11-29T14:17:35.431Z,74.80
2022-11-29T14:20:28.741Z,75.00
2022-11-29T14:23:05.543Z,75.60
2022-11-29T14:25:57.125Z,76.00
2022-11-29T14:28:24.934Z,76.10
2022-11-29T14:30:53.297Z,76.70
2022-11-29T14:33:38.316Z,76.90
2022-11-29T14:36:15.241Z,76.90
2022-11-29T14:38:56.933Z,76.80
2022-11-29T14:41:38.344Z,77.30
2022-11-29T14:44:15.971Z,77.30
2022-11-29T14:46:43.617Z,77.10
2022-11-29T14:49:26.642Z,77.60
2022-11-29T14:52:13.678Z,78.40
2022-11-29T14:54:56.176Z,78.20
2022-11-29T14:57:47.530Z,78.00
2022-11-29T15:00:16.938Z,77.60
2022-11-29T15:03:02.471Z,77.20
2022-11-29T15:05:38.654Z,77.80
2022-11-29T15:08:14.306Z,77.80
2022-11-29T15:10:50.310Z,77.90
2022-11-29T15:13:31.972Z,78.00
2022-11-29T15:16:25.696Z,78.10
2022-11-29T15:19:08.766Z,78.10
2022-11-29T15:21:52.778Z,78.20
2022-11-29T15:24:26.788Z,78.00
2022-11-29T15:27:00.601Z,77.90
2022-11-29T15:29:29.985Z,77.90
2022-11-29T15:32:00.110Z,78.20
2022-11-29T15:34:34.746Z,78.70
2022-11-29T15:37:02.837Z,79.00
2022-11-29T15:39:32.180Z,79.00
2022-11-29T15:42:11.839Z,79.20
2022-11-29T15:44:45.987Z,79.30
2022-11-29T15:47:26.515Z,79.50
2022-11-29T15:49:54.719Z,79.60
2022-11-29T15:52:34.656Z,79.70
2022-11-29T15:55:10.655Z,79.60
2022-11-29T15:57:48.924Z,79.50
2022-11-29T16:00:23.392Z,79.80
2022-11-29T16:02:56.743Z,79.70
2022-11-29T16:05:29.256Z,79.60
2022-11-29T16:08:02.195Z,79.80
2022-11-29T16:10:40.636Z,79.70
2022-11-29T16:13:34.411Z,79.80
2022-11-29T16:16:14.539Z,80.10
2022-11-29T16:18:44.626Z,80.30
2022-11-29T16:21:28.504Z,80.80
2022-11-29T16:23:57.409Z,81.00
2022-11-29T16:26:34.647Z,80.70
2022-11-29T16:29:02.799Z,80.70
2022-11-29T16:31:36.603Z,80.80
2022-11-29T16:34:23.518Z,81.20
2022-11-29T16:37:07.637Z,81.40
2022-11-29T16:39:38.514Z,81.50
2022-11-29T16:42:23.603Z,81.80
2022-11-29T16:45:20.926Z,81.70
2022-11-29T16:47:58.114Z,81.60
2022-11-29T16:50:29.031Z,81.80
2022-11-29T16:53:17.088Z,81.70
2022-11-29T16:55:44.895Z,81.70
2022-11-29T16:58:12.965Z,82.00
2022-11-29T17:00:40.689Z,82.10
2022-11-29T17:03:12.339Z,82.20
2022-11-29T17:05:44.512Z,82.30
2022-11-29T17:08:12.900Z,82.30
2022-11-29T17:10:40.526Z,82.30
2022-11-29T17:13:12.338Z,82.30
2022-11-29T17:15:40.230Z,82.30
2022-11-29T17:18:07.813Z,82.50
2022-11-29T17:20:35.428Z,82.60
2022-11-29T17:23:03.123Z,82.60
2022-11-29T17:25:30.860Z,82.60
2022-11-29T17:27:58.437Z,82.70
2022-11-29T17:30:26.060Z,82.90
2022-11-29T17:32:53.541Z,83.00
2022-11-29T17:35:21.384Z,83.00
2022-11-29T17:37:48.968Z,82.90
2022-11-29T17:40:16.870Z,83.30
2022-11-29T17:42:44.497Z,83.40
2022-11-29T17:45:12.021Z,83.30
2022-11-29T17:47:39.349Z,83.40
2022-11-29T17:50:07.679Z,83.60
2022-11-29T17:52:34.989Z,83.30
2022-11-29T17:55:02.566Z,83.20
2022-11-29T17:57:30.215Z,83.40
2022-11-29T17:59:57.692Z,83.70
2022-11-29T18:02:25.191Z,83.40
2022-11-29T18:04:52.886Z,83.60
2022-11-29T18:07:20.605Z,83.70
2022-11-29T18:09:49.064Z,83.50
2022-11-29T18:12:16.910Z,83.70
2022-11-29T18:14:44.638Z,83.70
2022-11-29T18:17:12.027Z,83.80
2022-11-29T18:19:40.133Z,84.00
2022-11-29T18:22:07.621Z,84.10
2022-11-29T18:24:35.269Z,84.00
2022-11-29T18:27:02.770Z,84.30
2022-11-29T18:29:35.951Z,84.90
2022-11-29T18:32:05.722Z,84.80
2022-11-29T18:34:33.416Z,84.40
2022-11-29T18:37:00.973Z,84.30
2022-11-29T18:39:30.070Z,84.20
2022-11-29T18:41:57.511Z,84.20
2022-11-29T18:44:29.573Z,84.10
2022-11-29T18:47:00.960Z,84.10
2022-11-29T18:49:29.066Z,84.30
2022-11-29T18:51:56.710Z,84.30
2022-11-29T18:54:25.433Z,84.00
2022-11-29T18:56:53.059Z,84.10
2022-11-29T18:59:22.099Z,84.00
2022-11-29T19:01:49.912Z,84.10
2022-11-29T19:04:20.034Z,83.80
2022-11-29T19:06:48.198Z,83.70
2022-11-29T19:09:19.793Z,83.80
2022-11-29T19:11:48.924Z,84.20
2022-11-29T19:14:17.415Z,84.40
2022-11-29T19:16:46.164Z,84.40
2022-11-29T19:19:14.273Z,84.70
2022-11-29T19:21:42.580Z,84.80
2022-11-29T19:24:15.798Z,84.70
2022-11-29T19:26:45.631Z,84.50
2022-11-29T19:29:14.272Z,84.70
2022-11-29T19:31:42.710Z,83.80
2022-11-29T19:34:10.922Z,84.70
2022-11-29T19:36:44.501Z,85.30
2022-11-29T19:39:17.785Z,84.80
2022-11-29T19:41:47.699Z,84.70
2022-11-29T19:44:15.618Z,84.30
2022-11-29T19:46:48.937Z,84.70
2022-11-29T19:49:17.150Z,85.10
2022-11-29T19:51:44.703Z,85.00
2022-11-29T19:54:12.888Z,85.00
2022-11-29T19:56:40.664Z,85.40
2022-11-29T19:59:08.928Z,85.50
2022-11-29T20:01:41.532Z,85.50
2022-11-29T20:04:11.425Z,85.30
2022-11-29T20:06:39.541Z,84.70
2022-11-29T20:09:07.753Z,87.60
2022-11-29T20:11:36.091Z,90.60
2022-11-29T20:14:05.428Z,91.40
2022-11-29T20:16:33.871Z,92.30
2022-11-29T20:19:01.985Z,92.80
2022-11-29T20:21:32.677Z,93.20
2022-11-29T20:24:10.580Z,93.40
2022-11-29T20:26:38.875Z,93.40
2022-11-29T20:29:08.630Z,93.30
2022-11-29T20:31:37.808Z,93.20
2022-11-29T20:34:06.616Z,93.00
2022-11-29T20:36:53.833Z,92.50
2022-11-29T20:39:48.646Z,92.10
2022-11-29T20:42:19.877Z,91.50
2022-11-29T20:44:56.742Z,90.90
2022-11-29T20:47:31.878Z,90.30
2022-11-29T20:50:00.010Z,89.60
2022-11-29T20:52:56.459Z,88.40
2022-11-29T20:55:24.141Z,86.10
2022-11-29T20:57:52.458Z,80.10
2022-11-29T21:00:20.759Z,70.80
2022-11-29T21:02:48.254Z,68.70
2022-11-29T21:05:16.789Z,64.70
2022-11-29T21:07:46.859Z,59.70
2022-11-29T21:10:17.707Z,56.20
2022-11-29T21:12:46.230Z,54.60
2022-11-29T21:15:14.984Z,53.30
2022-11-29T21:17:43.655Z,52.50
2022-11-29T21:20:24.549Z,52.20
2022-11-29T21:23:03.895Z,51.50
2022-11-29T21:25:47.639Z,51.80
2022-11-29T21:28:16.490Z,54.20
2022-11-29T21:30:44.771Z,55.50
2022-11-29T21:33:12.723Z,54.80
2022-11-29T21:35:40.826Z,51.50
2022-11-29T21:38:14.995Z,50.50
2022-11-29T21:40:42.890Z,50.40
2022-11-29T21:43:10.328Z,49.80
2022-11-29T21:45:37.877Z,49.40
2022-11-29T21:48:25.319Z,51.50
2022-11-29T21:50:53.244Z,53.00
2022-11-29T21:53:20.800Z,52.80
2022-11-29T21:55:48.502Z,52.70
2022-11-29T21:58:15.965Z,53.00
2022-11-29T22:00:43.823Z,52.50
2022-11-29T22:03:11.090Z,51.80
2022-11-29T22:05:38.669Z,50.90
2022-11-29T22:08:06.858Z,49.70
2022-11-29T22:10:34.485Z,49.70
2022-11-29T22:13:01.908Z,51.10
2022-11-29T22:15:29.700Z,53.60
2022-11-29T22:17:57.136Z,53.40
2022-11-29T22:20:25.169Z,52.90
2022-11-29T22:22:58.436Z,52.50
2022-11-29T22:25:26.543Z,51.90
2022-11-29T22:27:53.813Z,50.90
2022-11-29T22:30:21.541Z,49.90
2022-11-29T22:32:48.850Z,49.10
2022-11-29T22:35:16.675Z,49.00
2022-11-29T22:37:44.007Z,49.00
2022-11-29T22:40:12.081Z,49.70
2022-11-29T22:42:41.484Z,49.20
2022-11-29T22:45:09.331Z,48.20
2022-11-29T22:47:37.040Z,47.70
2022-11-29T22:50:06.119Z,46.90
2022-11-29T22:52:33.636Z,46.70
2022-11-29T22:55:04.782Z,46.40
2022-11-29T22:57:35.733Z,45.60
2022-11-29T23:00:04.968Z,45.20
2022-11-29T23:02:32.410Z,44.90
2022-11-29T23:05:00.043Z,45.30
2022-11-29T23:07:27.517Z,45.00
2022-11-29T23:09:56.130Z,44.90
2022-11-29T23:12:23.408Z,46.50
2022-11-29T23:14:56.059Z,46.20
2022-11-29T23:17:23.907Z,46.30
2022-11-29T23:19:51.621Z,45.40
2022-11-29T23:22:18.919Z,44.80
2022-11-29T23:24:47.699Z,44.60
2022-11-29T23:27:15.610Z,44.40
2022-11-29T23:29:43.193Z,44.70
2022-11-29T23:32:10.515Z,44.80
2022-11-29T23:34:38.270Z,44.60
2022-11-29T23:37:05.649Z,45.00
2022-11-29T23:39:33.255Z,44.90
2022-11-29T23:42:00.494Z,45.40
2022-11-29T23:44:28.247Z,45.30
2022-11-29T23:46:55.651Z,45.90
2022-11-29T23:49:23.407Z,45.50
2022-11-29T23:51:50.681Z,44.70
2022-11-29T23:54:18.488Z,44.00
2022-11-29T23:56:45.725Z,43.60
2022-11-29T23:59:13.233Z,43.30
